Terminal Aerodrome Forecast
Issued by NWS St Louis, MO

Home | Current Version | Previous Version | Text Only | Print | Product List | Glossary On
Versions: 1 2 3 4 5 6 7 8 9 10 11 12 13 14 15 16 17 18 19 20 21 22 23 24 25 26 27 28
000
FTUS43 KLSX 040854 AAA
TAFSTL
TAF AMD
KSTL 040854Z 0409/0512 07005KT P6SM VCTS BKN050CB
     FM041300 VRB04KT P6SM FEW050 SCT250
     FM041900 VRB04KT P6SM VCTS SCT040CB SCT250
     FM050000 12005KT P6SM SCT070 BKN250=

USA.gov is the U.S. government's official web portal to all federal, state and local government web resources and services.